Airport ID:1G3
Update Time (UTC):29/05/2024 12:46
Wind Speed (Knots):2
Wind Direction (Magnetic):70
Temperature (°C):14
Dew Point (°C):13
Humidity (%):99
Altimeter (inHg):29.99
Density Altitude (Feet):
Visibility (Miles):3/4
Clouds (Hundreds of feet):***
Present Weather:BR
METAR:METAR 1G3 291245Z AUTO 00000KT 3/4SM BR 13/13 A2999 RMK A01

The data displayed is for advisory purposes only and is not to be used for flight planning or operations.